Lorenzo, Illinois
Current Conditions -  °F | °C
As of 3:15 AM on Friday 31 Oct 2014 (Local Time) from KJOT Reporting Station
Overcast Overcast  
Wind Chill: 43°   Ceiling: 4100
Heat Index: 46°   Visibility: 10mi
Dew Point: 38°   Wind: 5mph
Humidity: 74%   Direction: 320°NW
Pressure: 30.03"   Gusts: NA
Location:  41.3199°N, 88.0518°W
Report Text: KJOT 310815Z AUTO 32004KT 10SM SCT025 SCT032 OVC041 08/03 A3003 RMK AO2 T00750032
Loading
Personal Weather Stations






























Interactive Weather Map
Tropical Storm Tracking
New forecast layout! Learn more

10-Day Weather Forecast

Advertisements
Track Severe Weather on mobile